createdAt,value
2023-01-02T00:01:12.449Z,33.40
2023-01-02T00:03:40.061Z,33.05
2023-01-02T00:06:08.080Z,32.28
2023-01-02T00:08:35.556Z,34.50
2023-01-02T00:11:02.872Z,32.72
2023-01-02T00:13:30.371Z,33.30
2023-01-02T00:15:57.897Z,33.00
2023-01-02T00:18:25.319Z,33.17
2023-01-02T00:20:52.758Z,31.70
2023-01-02T00:23:20.204Z,31.33
2023-01-02T00:25:48.952Z,32.03
2023-01-02T00:28:16.332Z,32.22
2023-01-02T00:30:43.739Z,30.92
2023-01-02T00:33:11.140Z,32.38
2023-01-02T00:35:39.090Z,32.20
2023-01-02T00:38:06.621Z,31.13
2023-01-02T00:40:34.877Z,33.22
2023-01-02T00:43:02.330Z,33.15
2023-01-02T00:45:29.727Z,32.25
2023-01-02T00:47:57.060Z,32.65
2023-01-02T00:50:24.478Z,33.67
2023-01-02T00:52:51.812Z,31.67
2023-01-02T00:55:19.165Z,31.17
2023-01-02T00:57:46.561Z,31.42
2023-01-02T01:00:19.987Z,30.65
2023-01-02T01:02:56.170Z,30.77
2023-01-02T01:05:25.155Z,31.27
2023-01-02T01:07:54.624Z,31.67
2023-01-02T01:10:23.063Z,31.75
2023-01-02T01:12:50.522Z,31.23
2023-01-02T01:15:18.163Z,31.52
2023-01-02T01:17:46.009Z,31.92
2023-01-02T01:20:13.355Z,31.45
2023-01-02T01:22:40.743Z,31.42
2023-01-02T01:25:08.572Z,32.58
2023-01-02T01:27:36.093Z,32.50
2023-01-02T01:30:05.449Z,34.13
2023-01-02T01:32:32.918Z,31.60
2023-01-02T01:35:00.317Z,31.92
2023-01-02T01:37:27.668Z,32.38
2023-01-02T01:39:56.785Z,31.77
2023-01-02T01:42:24.500Z,32.03
2023-01-02T01:44:54.192Z,31.83
2023-01-02T01:47:27.811Z,31.45
2023-01-02T01:50:14.146Z,32.35
2023-01-02T01:52:47.831Z,30.45
2023-01-02T01:55:28.986Z,31.85
2023-01-02T01:58:21.507Z,32.60
2023-01-02T02:00:50.456Z,31.55
2023-01-02T02:03:27.069Z,31.75
2023-01-02T02:05:56.880Z,32.67
2023-01-02T02:08:33.738Z,31.40
2023-01-02T02:16:15.311Z,29.42
2023-01-02T02:19:10.523Z,30.55
2023-01-02T02:22:01.038Z,31.90
2023-01-02T02:24:54.678Z,30.05
2023-01-02T02:27:51.301Z,31.25
2023-01-02T02:30:23.980Z,31.52
2023-01-02T02:33:36.931Z,30.52
2023-01-02T02:36:32.405Z,30.73
2023-01-02T02:39:38.124Z,30.27
2023-01-02T02:42:18.480Z,30.13
2023-01-02T02:45:14.528Z,29.17
2023-01-02T02:47:56.141Z,29.83
2023-01-02T02:50:29.450Z,29.30
2023-01-02T02:53:10.933Z,29.38
2023-01-02T02:55:44.674Z,29.27
2023-01-02T02:58:14.941Z,28.58
2023-01-02T03:00:42.560Z,29.20
2023-01-02T03:03:20.755Z,29.20
2023-01-02T03:06:10.504Z,28.98
2023-01-02T03:08:45.128Z,28.33
2023-01-02T03:11:13.632Z,27.92
2023-01-02T03:13:56.779Z,28.13
2023-01-02T03:16:33.644Z,28.38
2023-01-02T03:19:13.955Z,27.42
2023-01-02T03:22:03.537Z,27.80
2023-01-02T03:24:32.619Z,27.88
2023-01-02T03:27:04.745Z,27.45
2023-01-02T03:29:41.085Z,27.27
2023-01-02T03:32:17.574Z,27.88
2023-01-02T03:34:48.112Z,26.83
2023-01-02T03:37:23.385Z,25.98
2023-01-02T03:39:57.791Z,26.00
2023-01-02T03:43:12.827Z,27.23
2023-01-02T03:45:48.954Z,26.42
2023-01-02T03:48:43.950Z,27.85
2023-01-02T03:51:12.139Z,27.70
2023-01-02T03:53:41.151Z,27.38
2023-01-02T03:56:26.545Z,27.70
2023-01-02T03:59:04.181Z,27.98
2023-01-02T04:01:39.438Z,27.42
2023-01-02T04:04:24.869Z,27.55
2023-01-02T04:06:58.540Z,27.25
2023-01-02T04:09:29.402Z,27.38
2023-01-02T04:12:01.595Z,26.25
2023-01-02T04:14:41.443Z,27.08
2023-01-02T04:17:10.482Z,27.55
2023-01-02T04:19:52.288Z,27.10
2023-01-02T04:22:31.901Z,26.90
2023-01-02T04:25:10.649Z,26.98
2023-01-02T04:27:49.267Z,26.27
2023-01-02T04:30:16.715Z,25.83
2023-01-02T04:32:45.761Z,26.63
2023-01-02T04:35:22.559Z,27.45
2023-01-02T04:37:50.174Z,26.10
2023-01-02T04:40:30.877Z,26.48
2023-01-02T04:42:58.204Z,24.80
2023-01-02T04:45:25.532Z,26.27
2023-01-02T04:47:52.875Z,26.23
2023-01-02T04:50:20.294Z,24.85
2023-01-02T04:52:47.651Z,26.20
2023-01-02T04:55:15.041Z,26.00
2023-01-02T04:57:42.372Z,25.33
2023-01-02T05:00:10.297Z,25.55
2023-01-02T05:02:39.354Z,25.90
2023-01-02T05:05:08.811Z,25.95
2023-01-02T05:07:37.153Z,26.08
2023-01-02T05:10:05.796Z,24.75
2023-01-02T05:12:37.335Z,24.65
2023-01-02T05:15:06.889Z,24.88
2023-01-02T05:17:35.695Z,23.73
2023-01-02T05:20:05.642Z,24.35
2023-01-02T05:22:51.635Z,24.45
2023-01-02T05:25:19.090Z,23.67
2023-01-02T05:27:46.419Z,23.67
2023-01-02T05:30:13.782Z,23.55
2023-01-02T05:32:41.139Z,23.30
2023-01-02T05:35:08.916Z,23.35
2023-01-02T05:37:36.243Z,24.33
2023-01-02T05:40:04.009Z,23.58
2023-01-02T05:42:31.464Z,23.20
2023-01-02T05:44:58.807Z,23.33
2023-01-02T05:47:26.299Z,23.05
2023-01-02T05:49:53.661Z,23.33
2023-01-02T05:52:21.001Z,23.08
2023-01-02T05:54:48.487Z,23.15
2023-01-02T05:57:16.015Z,22.10
2023-01-02T05:59:43.344Z,22.55
2023-01-02T06:02:10.983Z,23.30
2023-01-02T06:04:38.440Z,22.52
2023-01-02T06:07:05.808Z,22.15
2023-01-02T06:09:33.144Z,22.77
2023-01-02T06:12:00.651Z,21.92
2023-01-02T06:14:28.012Z,21.77
2023-01-02T06:16:55.383Z,22.45
2023-01-02T06:19:22.782Z,22.70
2023-01-02T06:21:50.073Z,21.42
2023-01-02T06:24:17.456Z,21.38
2023-01-02T06:26:44.806Z,20.83
2023-01-02T06:29:13.029Z,21.58
2023-01-02T06:31:42.516Z,21.15
2023-01-02T06:34:12.330Z,20.40
2023-01-02T06:36:39.749Z,20.63
2023-01-02T06:39:07.129Z,20.65
2023-01-02T06:41:34.493Z,21.73
2023-01-02T06:44:01.899Z,21.52
2023-01-02T06:46:29.273Z,20.60
2023-01-02T06:48:56.711Z,20.08
2023-01-02T06:51:24.261Z,21.10
2023-01-02T06:53:52.058Z,19.13
2023-01-02T06:56:21.271Z,20.15
2023-01-02T06:58:49.122Z,20.20
2023-01-02T07:01:19.395Z,20.50
2023-01-02T07:03:47.123Z,20.40
2023-01-02T07:06:16.784Z,20.02
2023-01-02T07:08:44.736Z,19.77
2023-01-02T07:11:20.827Z,19.58
2023-01-02T07:13:49.959Z,20.45
2023-01-02T07:16:19.422Z,19.23
2023-01-02T07:18:46.869Z,20.00
2023-01-02T07:21:15.294Z,19.95
2023-01-02T07:23:42.880Z,19.27
2023-01-02T07:26:11.064Z,18.50
2023-01-02T07:28:39.113Z,19.63
2023-01-02T07:31:11.447Z,20.02
2023-01-02T07:33:39.088Z,19.98
2023-01-02T07:36:13.281Z,20.00
2023-01-02T07:38:40.994Z,20.17
2023-01-02T07:41:16.425Z,21.17
2023-01-02T07:43:45.304Z,20.00
2023-01-02T07:46:14.949Z,18.52
2023-01-02T07:48:42.451Z,20.15
2023-01-02T07:51:11.004Z,18.95
2023-01-02T07:53:39.052Z,19.65
2023-01-02T07:56:07.841Z,19.98
2023-01-02T07:58:35.499Z,20.02
2023-01-02T08:01:07.905Z,19.42
2023-01-02T08:03:35.828Z,19.48
2023-01-02T08:06:08.827Z,19.95
2023-01-02T08:08:36.538Z,19.70
2023-01-02T08:11:11.672Z,19.05
2023-01-02T08:13:39.252Z,20.48
2023-01-02T08:16:17.354Z,20.27
2023-01-02T08:18:45.207Z,20.70
2023-01-02T08:21:12.955Z,19.65
2023-01-02T08:23:41.360Z,19.63
2023-01-02T08:26:10.843Z,19.85
2023-01-02T08:28:40.219Z,20.35
2023-01-02T08:31:15.162Z,20.13
2023-01-02T08:33:42.698Z,19.35
2023-01-02T08:36:10.167Z,20.42
2023-01-02T08:38:37.916Z,18.75
2023-01-02T08:41:06.349Z,19.67
2023-01-02T08:43:35.615Z,19.08
2023-01-02T08:46:05.518Z,20.92
2023-01-02T08:48:33.766Z,20.05
2023-01-02T08:51:02.168Z,19.27
2023-01-02T08:53:29.558Z,19.20
2023-01-02T08:56:18.891Z,19.30
2023-01-02T08:58:56.673Z,19.33
2023-01-02T09:01:25.606Z,18.83
2023-01-02T09:03:54.217Z,19.50
2023-01-02T09:06:23.537Z,19.23
2023-01-02T09:08:55.508Z,19.05
2023-01-02T09:11:28.410Z,18.38
2023-01-02T09:13:57.171Z,19.20
2023-01-02T09:16:25.304Z,18.55
2023-01-02T09:18:53.168Z,17.88
2023-01-02T09:21:20.573Z,17.48
2023-01-02T09:23:48.155Z,18.30
2023-01-02T09:26:16.131Z,18.05
2023-01-02T09:28:43.715Z,16.83
2023-01-02T09:31:14.331Z,18.55
2023-01-02T09:33:43.020Z,17.55
2023-01-02T09:36:13.602Z,17.15
2023-01-02T09:38:41.015Z,17.75
2023-01-02T09:41:21.308Z,17.83
2023-01-02T09:43:53.628Z,16.67
2023-01-02T09:46:33.603Z,16.90
2023-01-02T09:49:02.567Z,17.48
2023-01-02T09:51:32.479Z,17.67
2023-01-02T09:54:00.942Z,16.77
2023-01-02T09:56:38.372Z,17.05
2023-01-02T09:59:32.087Z,17.25
2023-01-02T10:02:17.624Z,17.30
2023-01-02T10:05:03.710Z,16.80
2023-01-02T10:07:49.046Z,17.27
2023-01-02T10:10:16.406Z,17.02
2023-01-02T10:13:01.203Z,15.98
2023-01-02T10:15:30.711Z,16.13
2023-01-02T10:18:17.724Z,16.20
2023-01-02T10:20:51.245Z,15.98
2023-01-02T10:23:25.171Z,15.73
2023-01-02T10:26:02.425Z,15.52
2023-01-02T10:28:51.187Z,15.30
2023-01-02T10:31:31.443Z,15.23
2023-01-02T10:34:01.783Z,14.90
2023-01-02T10:36:32.152Z,15.52
2023-01-02T10:39:02.639Z,15.85
2023-01-02T10:41:31.510Z,14.73
2023-01-02T10:44:22.046Z,15.30
2023-01-02T10:46:49.427Z,14.63
2023-01-02T10:49:18.361Z,15.25
2023-01-02T10:51:50.993Z,15.07
2023-01-02T10:54:18.344Z,14.35
2023-01-02T10:56:50.221Z,14.23
2023-01-02T10:59:23.391Z,15.35
2023-01-02T11:01:59.154Z,14.20
2023-01-02T11:04:31.062Z,14.60
2023-01-02T11:07:01.327Z,14.27
2023-01-02T11:09:31.984Z,13.80
2023-01-02T11:12:12.480Z,13.65
2023-01-02T11:14:40.394Z,13.63
2023-01-02T11:17:16.352Z,13.63
2023-01-02T11:19:50.547Z,14.13
2023-01-02T11:22:20.771Z,13.50
2023-01-02T11:25:05.592Z,13.35
2023-01-02T11:27:36.806Z,13.40
2023-01-02T11:30:09.922Z,12.90
2023-01-02T11:32:40.074Z,12.88
2023-01-02T11:35:34.177Z,14.05
2023-01-02T11:38:02.641Z,12.35
2023-01-02T11:40:32.185Z,12.77
2023-01-02T11:43:26.485Z,12.57
2023-01-02T11:45:54.770Z,13.07
2023-01-02T11:48:24.659Z,12.80
2023-01-02T11:50:53.018Z,12.65
2023-01-02T11:53:25.075Z,12.70
2023-01-02T11:56:14.007Z,12.20
2023-01-02T11:58:58.651Z,12.23
2023-01-02T12:01:47.762Z,12.57
2023-01-02T12:04:16.100Z,12.45
2023-01-02T12:07:06.376Z,12.63
2023-01-02T12:10:05.962Z,12.65
2023-01-02T12:13:01.434Z,12.38
2023-01-02T12:15:53.675Z,11.38
2023-01-02T12:18:32.785Z,12.30
2023-01-02T12:21:08.619Z,11.60
2023-01-02T12:24:06.668Z,12.30
2023-01-02T12:29:54.821Z,12.07
2023-01-02T12:32:57.283Z,11.70
2023-01-02T12:36:02.375Z,11.02
2023-01-02T12:39:08.181Z,11.88
2023-01-02T12:42:02.023Z,11.73
2023-01-02T12:44:50.682Z,11.27
2023-01-02T12:47:49.290Z,11.52
2023-01-02T12:50:46.902Z,11.00
2023-01-02T12:54:18.433Z,11.32
2023-01-02T12:56:53.001Z,11.43
2023-01-02T12:59:36.426Z,11.57
2023-01-02T13:02:43.657Z,10.95
2023-01-02T13:05:16.861Z,10.88
2023-01-02T13:07:54.829Z,11.20
2023-01-02T13:10:26.608Z,11.02
2023-01-02T13:12:57.776Z,10.93
2023-01-02T13:15:33.481Z,11.82
2023-01-02T13:18:00.970Z,11.75
2023-01-02T13:20:53.181Z,11.10
2023-01-02T13:23:31.674Z,11.23
2023-01-02T13:26:14.784Z,10.85
2023-01-02T13:29:19.043Z,10.85
2023-01-02T13:31:53.858Z,10.48
2023-01-02T13:34:25.966Z,10.68
2023-01-02T13:37:10.084Z,10.70
2023-01-02T13:39:41.293Z,10.82
2023-01-02T13:42:52.275Z,10.48
2023-01-02T13:45:33.241Z,10.23
2023-01-02T13:48:05.315Z,10.75
2023-01-02T13:50:40.915Z,9.63
2023-01-02T13:53:11.421Z,10.07
2023-01-02T13:55:41.758Z,9.90
2023-01-02T13:58:14.930Z,10.63
2023-01-02T14:00:54.380Z,10.40
2023-01-02T14:03:28.057Z,10.23
2023-01-02T14:05:58.860Z,11.05
2023-01-02T14:08:30.713Z,11.00
2023-01-02T14:11:19.912Z,10.95
2023-01-02T14:13:51.547Z,11.02
2023-01-02T14:16:25.092Z,10.52
2023-01-02T14:19:14.127Z,10.48
2023-01-02T14:21:58.814Z,11.43
2023-01-02T14:24:43.234Z,10.80
2023-01-02T14:27:16.647Z,12.82
2023-01-02T14:29:53.345Z,11.95
2023-01-02T14:32:23.989Z,12.75
2023-01-02T14:34:55.758Z,12.75
2023-01-02T14:37:33.513Z,12.77
2023-01-02T14:40:12.625Z,13.60
2023-01-02T14:43:01.779Z,13.85
2023-01-02T14:45:31.310Z,16.35
2023-01-02T14:48:06.692Z,17.58
2023-01-02T14:50:37.422Z,18.52
2023-01-02T14:53:24.951Z,19.42
2023-01-02T14:55:58.837Z,19.75
2023-01-02T14:58:31.294Z,21.30
2023-01-02T15:01:04.363Z,20.85
2023-01-02T15:03:55.403Z,20.92
2023-01-02T15:06:38.975Z,20.95
2023-01-02T15:09:13.398Z,20.30
2023-01-02T15:12:15.016Z,22.13
2023-01-02T15:14:43.264Z,22.15
2023-01-02T15:17:14.788Z,23.48
2023-01-02T15:19:42.711Z,22.73
2023-01-02T15:22:12.443Z,23.42
2023-01-02T15:24:39.993Z,24.48
2023-01-02T15:27:28.087Z,24.27
2023-01-02T15:29:59.282Z,23.85
2023-01-02T15:32:32.828Z,24.10
2023-01-02T15:35:35.151Z,23.70
2023-01-02T15:38:05.225Z,24.55
2023-01-02T15:40:35.648Z,23.90
2023-01-02T15:43:25.031Z,24.88
2023-01-02T15:45:53.000Z,25.30
2023-01-02T15:48:22.616Z,24.20
2023-01-02T15:50:55.348Z,25.38
2023-01-02T15:53:28.870Z,24.38
2023-01-02T15:55:57.181Z,25.75
2023-01-02T15:58:32.892Z,25.27
2023-01-02T16:01:22.373Z,26.73
2023-01-02T16:04:04.622Z,26.98
2023-01-02T16:06:34.928Z,27.42
2023-01-02T16:09:05.529Z,27.20
2023-01-02T16:11:47.300Z,27.17
2023-01-02T16:14:20.591Z,27.67
2023-01-02T16:17:12.583Z,26.75
2023-01-02T16:20:00.289Z,28.08
2023-01-02T16:22:55.064Z,28.05
2023-01-02T16:25:25.583Z,28.85
2023-01-02T16:27:53.019Z,28.17
2023-01-02T16:30:23.430Z,29.73
2023-01-02T16:32:51.560Z,31.00
2023-01-02T16:35:30.948Z,31.05
2023-01-02T16:38:00.711Z,32.15
2023-01-02T16:41:01.105Z,33.38
2023-01-02T16:43:20.056Z,32.20
2023-01-02T16:45:49.567Z,32.90
2023-01-02T16:48:29.777Z,33.50
2023-01-02T16:50:58.599Z,35.22
2023-01-02T16:53:30.333Z,35.85
2023-01-02T16:55:58.500Z,34.83
2023-01-02T16:58:26.023Z,34.92
2023-01-02T17:00:55.784Z,34.67
2023-01-02T17:03:25.743Z,35.28
2023-01-02T17:06:01.052Z,35.35
2023-01-02T17:08:33.699Z,33.78
2023-01-02T17:11:01.655Z,35.67
2023-01-02T17:13:29.999Z,36.13
2023-01-02T17:15:58.059Z,35.70
2023-01-02T17:18:25.672Z,35.30
2023-01-02T17:20:53.061Z,36.58
2023-01-02T17:23:21.093Z,34.95
2023-01-02T17:25:48.608Z,34.35
2023-01-02T17:28:16.365Z,34.10
2023-01-02T17:30:46.217Z,34.72
2023-01-02T17:33:13.902Z,35.72
2023-01-02T17:35:41.694Z,34.72
2023-01-02T17:38:09.075Z,35.00
2023-01-02T17:40:37.496Z,35.13
2023-01-02T17:43:05.690Z,33.65
2023-01-02T17:45:33.356Z,33.97
2023-01-02T17:48:07.869Z,34.78
2023-01-02T17:53:07.984Z,35.08
2023-01-02T17:55:35.594Z,34.88
2023-01-02T17:58:03.878Z,33.70
2023-01-02T18:00:31.309Z,35.10
2023-01-02T18:02:58.796Z,34.63
2023-01-02T18:05:26.176Z,34.15
2023-01-02T18:07:53.487Z,35.13
2023-01-02T18:10:21.786Z,35.03
2023-01-02T18:12:51.204Z,35.20
2023-01-02T18:15:21.561Z,35.35
2023-01-02T18:17:49.859Z,35.97
2023-01-02T18:20:19.872Z,35.15
2023-01-02T18:22:50.831Z,35.97
2023-01-02T18:25:27.596Z,36.78
2023-01-02T18:28:17.805Z,37.30
2023-01-02T18:30:45.389Z,37.60
2023-01-02T18:33:15.788Z,39.08
2023-01-02T18:35:57.177Z,37.25
2023-01-02T18:38:34.413Z,37.65
2023-01-02T18:41:31.790Z,37.80
2023-01-02T18:44:18.075Z,39.42
2023-01-02T18:47:03.054Z,40.28
2023-01-02T18:49:42.529Z,39.88
2023-01-02T18:52:24.265Z,40.45
2023-01-02T18:54:59.467Z,41.58
2023-01-02T18:57:31.992Z,40.92
2023-01-02T19:00:21.496Z,39.83
2023-01-02T19:03:03.939Z,40.30
2023-01-02T19:05:44.200Z,39.72
2023-01-02T19:08:17.375Z,39.35
2023-01-02T19:10:56.146Z,39.47
2023-01-02T19:13:35.085Z,38.55
2023-01-02T19:16:05.677Z,38.30
2023-01-02T19:18:37.388Z,38.15
2023-01-02T19:21:33.372Z,37.42
2023-01-02T19:24:22.683Z,36.08
2023-01-02T19:26:55.496Z,35.55
2023-01-02T19:29:29.684Z,35.92
2023-01-02T19:32:18.609Z,35.80
2023-01-02T19:34:53.514Z,37.10
2023-01-02T19:37:26.737Z,35.95
2023-01-02T19:39:57.491Z,36.25
2023-01-02T19:42:28.268Z,37.08
2023-01-02T19:45:05.349Z,35.80
2023-01-02T19:47:35.886Z,36.53
2023-01-02T19:50:06.791Z,36.13
2023-01-02T19:52:34.132Z,37.40
2023-01-02T19:55:02.355Z,36.05
2023-01-02T19:57:29.798Z,36.25
2023-01-02T19:59:59.091Z,36.03
2023-01-02T20:02:29.540Z,35.65
2023-01-02T20:04:56.941Z,36.03
2023-01-02T20:07:25.884Z,36.40
2023-01-02T20:09:53.366Z,36.28
2023-01-02T20:12:30.419Z,35.28
2023-01-02T20:15:19.553Z,36.90
2023-01-02T20:17:47.307Z,36.47
2023-01-02T20:20:18.993Z,36.42
2023-01-02T20:22:47.849Z,36.97
2023-01-02T20:25:17.489Z,36.28
2023-01-02T20:27:45.019Z,36.85
2023-01-02T20:30:12.857Z,36.75
2023-01-02T20:32:40.199Z,36.65
2023-01-02T20:35:08.128Z,38.75
2023-01-02T20:37:35.588Z,36.53
2023-01-02T20:40:03.095Z,36.75
2023-01-02T20:42:30.539Z,37.30
2023-01-02T20:44:57.844Z,37.08
2023-01-02T20:47:25.230Z,37.13
2023-01-02T20:49:52.559Z,36.72
2023-01-02T20:52:20.351Z,37.25
2023-01-02T20:57:20.157Z,36.05
2023-01-02T20:59:47.612Z,36.13
2023-01-02T21:02:15.159Z,37.40
2023-01-02T21:04:42.654Z,36.33
2023-01-02T21:07:10.013Z,36.20
2023-01-02T21:09:37.387Z,36.85
2023-01-02T21:12:24.920Z,36.03
2023-01-02T21:17:19.488Z,36.80
2023-01-02T21:19:46.896Z,34.92
2023-01-02T21:22:14.296Z,36.78
2023-01-02T21:24:41.653Z,35.75
2023-01-02T21:27:13.003Z,35.65
2023-01-02T21:29:41.312Z,34.67
2023-01-02T21:32:08.736Z,35.30
2023-01-02T21:34:36.077Z,35.58
2023-01-02T21:37:03.474Z,34.30
2023-01-02T21:39:30.863Z,35.80
2023-01-02T21:42:16.475Z,35.85
2023-01-02T21:44:47.233Z,33.95
2023-01-02T21:47:16.340Z,33.67
2023-01-02T21:49:44.747Z,34.25
2023-01-02T21:52:12.257Z,33.88
2023-01-02T21:54:39.587Z,31.70
2023-01-02T21:57:07.265Z,32.10
2023-01-02T21:59:34.621Z,31.35
2023-01-02T22:02:04.135Z,33.25
2023-01-02T22:04:32.394Z,31.95
2023-01-02T22:12:14.460Z,31.10
2023-01-02T22:14:43.127Z,30.85
2023-01-02T22:17:11.217Z,31.50
2023-01-02T22:19:38.814Z,29.77
2023-01-02T22:22:06.502Z,31.73
2023-01-02T22:24:35.639Z,31.02
2023-01-02T22:27:09.902Z,29.92
2023-01-02T22:30:18.573Z,29.30
2023-01-02T22:34:52.741Z,29.27
2023-01-02T22:37:22.707Z,29.35
2023-01-02T22:39:51.056Z,27.63
2023-01-02T22:45:48.757Z,28.33
2023-01-02T22:48:26.575Z,28.15
2023-01-02T22:50:56.813Z,26.80
2023-01-02T22:53:30.201Z,26.98
2023-01-02T22:55:58.563Z,26.45
2023-01-02T22:58:26.091Z,26.60
2023-01-02T23:01:04.761Z,25.73
2023-01-02T23:03:41.505Z,26.17
2023-01-02T23:08:37.385Z,25.40
2023-01-02T23:11:06.026Z,25.20
2023-01-02T23:13:35.207Z,23.75
2023-01-02T23:16:21.754Z,24.02
2023-01-02T23:19:07.788Z,25.43
2023-01-02T23:21:37.415Z,24.38
2023-01-02T23:24:06.502Z,23.63
2023-01-02T23:26:41.382Z,22.90
2023-01-02T23:29:09.479Z,23.27
2023-01-02T23:31:39.410Z,22.80
2023-01-02T23:34:08.116Z,22.92
2023-01-02T23:36:36.328Z,21.50
2023-01-02T23:39:05.472Z,21.58
2023-01-02T23:41:33.147Z,20.92
2023-01-02T23:44:00.589Z,20.05
2023-01-02T23:46:28.130Z,19.50
2023-01-02T23:48:55.571Z,19.13
2023-01-02T23:51:22.992Z,19.13
2023-01-02T23:53:50.411Z,18.30
2023-01-02T23:56:29.209Z,17.90
2023-01-02T23:58:59.050Z,17.75
